createdAt,value
2022-10-30T00:00:40.989Z,6.85
2022-10-30T00:03:11.939Z,7.60
2022-10-30T00:05:42.333Z,7.47
2022-10-30T00:08:11.227Z,12.00
2022-10-30T00:10:38.967Z,8.57
2022-10-30T00:13:05.738Z,7.65
2022-10-30T00:15:33.090Z,10.38
2022-10-30T00:18:00.190Z,13.63
2022-10-30T00:20:27.501Z,9.77
2022-10-30T00:22:54.700Z,12.32
2022-10-30T00:25:21.756Z,14.90
2022-10-30T00:27:48.568Z,7.57
2022-10-30T00:30:16.381Z,15.38
2022-10-30T00:32:43.875Z,11.55
2022-10-30T00:35:11.482Z,9.60
2022-10-30T00:37:38.270Z,9.38
2022-10-30T00:40:06.749Z,8.07
2022-10-30T00:42:33.742Z,9.68
2022-10-30T00:45:00.710Z,12.45
2022-10-30T00:47:33.223Z,10.02
2022-10-30T00:50:11.199Z,9.88
2022-10-30T00:52:45.619Z,6.15
2022-10-30T00:55:17.368Z,8.98
2022-10-30T00:57:46.074Z,7.53
2022-10-30T01:00:13.671Z,10.32
2022-10-30T01:02:42.280Z,9.23
2022-10-30T01:07:42.636Z,12.43
2022-10-30T01:10:10.590Z,11.40
2022-10-30T01:12:38.577Z,12.90
2022-10-30T01:15:06.456Z,11.43
2022-10-30T01:18:10.665Z,15.50
2022-10-30T01:20:55.818Z,9.73
2022-10-30T01:23:28.488Z,13.00
2022-10-30T01:26:23.222Z,8.00
2022-10-30T01:29:47.937Z,7.35
2022-10-30T01:32:23.325Z,8.77
2022-10-30T01:35:08.366Z,8.77
2022-10-30T01:37:39.505Z,11.25
2022-10-30T01:40:11.421Z,17.45
2022-10-30T01:42:44.297Z,7.05
2022-10-30T01:45:40.585Z,13.27
2022-10-30T01:48:42.019Z,14.57
2022-10-30T01:51:36.510Z,12.45
2022-10-30T01:54:22.252Z,16.55
2022-10-30T01:56:49.403Z,14.95
2022-10-30T01:59:45.957Z,6.43
2022-10-30T02:02:13.311Z,11.25
2022-10-30T02:04:40.749Z,9.85
2022-10-30T02:07:08.281Z,10.05
2022-10-30T02:09:35.520Z,10.70
2022-10-30T02:12:03.292Z,8.07
2022-10-30T02:14:43.058Z,11.27
2022-10-30T02:17:11.629Z,9.40
2022-10-30T02:19:41.631Z,10.05
2022-10-30T02:22:09.276Z,8.45
2022-10-30T02:24:36.507Z,10.93
2022-10-30T02:27:03.970Z,14.93
2022-10-30T02:29:31.118Z,19.05
2022-10-30T02:31:58.540Z,22.05
2022-10-30T02:34:25.745Z,9.63
2022-10-30T02:36:53.104Z,10.98
2022-10-30T02:39:21.401Z,9.43
2022-10-30T02:41:49.039Z,11.63
2022-10-30T02:44:16.313Z,9.35
2022-10-30T02:46:43.502Z,8.45
2022-10-30T02:49:10.614Z,11.23
2022-10-30T02:51:37.887Z,13.75
2022-10-30T02:54:05.071Z,13.30
2022-10-30T02:56:32.378Z,12.75
2022-10-30T02:58:59.492Z,15.75
2022-10-30T03:01:26.746Z,12.02
2022-10-30T03:03:54.015Z,15.07
2022-10-30T03:06:21.209Z,12.45
2022-10-30T03:08:48.420Z,7.43
2022-10-30T03:11:16.794Z,10.43
2022-10-30T03:13:46.338Z,8.40
2022-10-30T03:16:21.259Z,10.23
2022-10-30T03:18:48.721Z,12.13
2022-10-30T03:21:17.582Z,13.48
2022-10-30T03:23:44.784Z,13.20
2022-10-30T03:26:12.229Z,8.88
2022-10-30T03:28:39.492Z,6.50
2022-10-30T03:31:08.093Z,8.40
2022-10-30T03:33:35.636Z,13.25
2022-10-30T03:36:02.803Z,10.88
2022-10-30T03:38:29.978Z,10.00
2022-10-30T03:40:57.169Z,9.30
2022-10-30T03:43:24.320Z,12.15
2022-10-30T03:45:52.871Z,11.10
2022-10-30T03:48:21.093Z,17.70
2022-10-30T03:50:48.625Z,12.02
2022-10-30T03:53:16.022Z,7.95
2022-10-30T03:55:43.361Z,7.95
2022-10-30T03:58:10.523Z,8.32
2022-10-30T04:00:37.946Z,13.90
2022-10-30T04:03:07.796Z,11.13
2022-10-30T04:05:36.038Z,10.20
2022-10-30T04:08:04.506Z,13.02
2022-10-30T04:10:31.683Z,11.60
2022-10-30T04:13:02.182Z,11.80
2022-10-30T04:15:29.617Z,13.77
2022-10-30T04:17:57.091Z,14.10
2022-10-30T04:20:25.327Z,13.95
2022-10-30T04:23:18.560Z,8.60
2022-10-30T04:25:45.887Z,10.27
2022-10-30T04:28:13.107Z,19.40
2022-10-30T04:30:40.602Z,11.38
2022-10-30T04:33:09.659Z,13.13
2022-10-30T04:35:37.139Z,9.52
2022-10-30T04:38:05.374Z,11.02
2022-10-30T04:40:34.274Z,11.55
2022-10-30T04:43:02.979Z,13.98
2022-10-30T04:45:30.275Z,14.45
2022-10-30T04:48:04.197Z,12.40
2022-10-30T04:50:31.991Z,12.93
2022-10-30T04:52:59.975Z,9.00
2022-10-30T04:55:27.199Z,11.13
2022-10-30T04:57:58.804Z,14.85
2022-10-30T05:00:26.999Z,9.10
2022-10-30T05:02:54.352Z,11.55
2022-10-30T05:05:21.655Z,11.18
2022-10-30T05:07:48.956Z,12.55
2022-10-30T05:10:17.249Z,12.00
2022-10-30T05:12:47.243Z,12.32
2022-10-30T05:15:14.888Z,13.55
2022-10-30T05:17:41.889Z,7.72
2022-10-30T05:20:10.574Z,10.85
2022-10-30T05:22:39.348Z,11.13
2022-10-30T05:25:06.779Z,10.80
2022-10-30T05:27:33.902Z,12.95
2022-10-30T05:30:01.115Z,14.05
2022-10-30T05:32:28.307Z,10.95
2022-10-30T05:34:55.621Z,9.93
2022-10-30T05:37:22.756Z,9.85
2022-10-30T05:39:49.976Z,9.45
2022-10-30T05:42:17.434Z,9.15
2022-10-30T05:45:01.719Z,12.15
2022-10-30T05:47:29.645Z,12.88
2022-10-30T05:49:56.869Z,10.90
2022-10-30T05:52:24.324Z,10.10
2022-10-30T05:54:51.518Z,13.18
2022-10-30T05:57:18.704Z,11.57
2022-10-30T05:59:45.898Z,12.98
2022-10-30T06:02:13.115Z,10.23
2022-10-30T06:04:40.339Z,10.70
2022-10-30T06:07:07.498Z,14.25
2022-10-30T06:09:34.647Z,10.13
2022-10-30T06:12:02.114Z,8.45
2022-10-30T06:14:29.324Z,11.70
2022-10-30T06:16:56.542Z,10.65
2022-10-30T06:19:24.883Z,11.88
2022-10-30T06:21:52.289Z,12.88
2022-10-30T06:24:19.485Z,10.63
2022-10-30T06:26:46.976Z,14.23
2022-10-30T06:29:14.167Z,9.80
2022-10-30T06:31:41.932Z,11.23
2022-10-30T06:34:09.443Z,15.02
2022-10-30T06:36:36.741Z,10.75
2022-10-30T06:39:03.968Z,11.25
2022-10-30T06:41:31.222Z,11.90
2022-10-30T06:43:58.708Z,9.05
2022-10-30T06:46:29.048Z,11.52
2022-10-30T06:49:00.093Z,9.52
2022-10-30T06:51:27.327Z,11.80
2022-10-30T06:53:54.524Z,10.80
2022-10-30T06:56:21.798Z,8.60
2022-10-30T06:58:49.011Z,13.77
2022-10-30T07:01:16.656Z,19.70
2022-10-30T07:03:43.898Z,13.85
2022-10-30T07:06:11.336Z,7.55
2022-10-30T07:08:38.546Z,12.00
2022-10-30T07:11:05.818Z,8.73
2022-10-30T07:13:33.007Z,12.60
2022-10-30T07:16:00.224Z,11.32
2022-10-30T07:18:27.422Z,12.45
2022-10-30T07:20:58.128Z,9.43
2022-10-30T07:23:25.616Z,11.65
2022-10-30T07:25:52.899Z,13.18
2022-10-30T07:28:20.101Z,12.82
2022-10-30T07:30:47.306Z,12.95
2022-10-30T07:33:14.500Z,10.68
2022-10-30T07:35:41.748Z,8.02
2022-10-30T07:38:11.526Z,11.82
2022-10-30T07:40:39.051Z,7.15
2022-10-30T07:43:06.817Z,13.18
2022-10-30T07:45:34.155Z,14.02
2022-10-30T07:48:01.653Z,11.30
2022-10-30T07:50:29.485Z,10.13
2022-10-30T07:52:56.685Z,9.35
2022-10-30T07:55:23.955Z,9.73
2022-10-30T07:57:51.131Z,12.75
2022-10-30T08:00:18.326Z,10.02
2022-10-30T08:02:49.950Z,10.82
2022-10-30T08:05:17.538Z,11.75
2022-10-30T08:07:46.736Z,14.80
2022-10-30T08:10:13.980Z,11.00
2022-10-30T08:12:44.195Z,10.52
2022-10-30T08:15:12.134Z,9.23
2022-10-30T08:17:43.685Z,14.43
2022-10-30T08:20:11.699Z,18.08
2022-10-30T08:22:51.801Z,12.18
2022-10-30T08:25:20.445Z,15.52
2022-10-30T08:28:06.879Z,15.10
2022-10-30T08:30:35.478Z,13.05
2022-10-30T08:33:04.427Z,18.58
2022-10-30T08:35:32.998Z,17.98
2022-10-30T08:38:02.992Z,7.93
2022-10-30T08:40:30.596Z,15.02
2022-10-30T08:42:58.478Z,10.50
2022-10-30T08:45:29.887Z,14.05
2022-10-30T08:48:00.294Z,9.18
2022-10-30T08:50:28.104Z,16.58
2022-10-30T08:52:55.328Z,9.65
2022-10-30T08:55:22.555Z,13.23
2022-10-30T08:57:49.747Z,10.32
2022-10-30T09:00:17.075Z,9.52
2022-10-30T09:02:45.527Z,11.25
2022-10-30T09:05:12.780Z,9.77
2022-10-30T09:07:41.418Z,11.25
2022-10-30T09:10:09.217Z,9.13
2022-10-30T09:12:36.402Z,19.20
2022-10-30T09:15:03.910Z,15.18
2022-10-30T09:17:31.118Z,8.52
2022-10-30T09:19:58.379Z,8.00
2022-10-30T09:22:26.793Z,10.75
2022-10-30T09:24:54.053Z,12.52
2022-10-30T09:27:21.272Z,10.27
2022-10-30T09:29:48.439Z,13.30
2022-10-30T09:32:15.681Z,10.40
2022-10-30T09:34:43.072Z,15.25
2022-10-30T09:37:10.435Z,8.18
2022-10-30T09:39:37.700Z,12.15
2022-10-30T09:42:17.095Z,10.32
2022-10-30T09:45:15.276Z,13.40
2022-10-30T09:47:43.460Z,9.55
2022-10-30T09:50:34.522Z,16.60
2022-10-30T09:53:07.993Z,7.28
2022-10-30T09:55:41.842Z,7.47
2022-10-30T09:58:21.505Z,10.38
2022-10-30T10:00:54.762Z,9.25
2022-10-30T10:03:47.100Z,10.02
2022-10-30T10:06:19.257Z,9.32
2022-10-30T10:09:13.406Z,6.80
2022-10-30T10:11:46.034Z,11.02
2022-10-30T10:14:24.553Z,9.52
2022-10-30T10:16:56.491Z,7.68
2022-10-30T10:19:32.600Z,10.85
2022-10-30T10:22:02.018Z,9.45
2022-10-30T10:24:35.777Z,9.77
2022-10-30T10:27:30.192Z,11.88
2022-10-30T10:30:22.473Z,10.10
2022-10-30T10:35:49.535Z,9.10
2022-10-30T10:38:28.521Z,12.57
2022-10-30T10:40:58.677Z,7.32
2022-10-30T10:43:56.072Z,8.90
2022-10-30T10:46:50.570Z,11.48
2022-10-30T10:49:42.253Z,10.90
2022-10-30T10:52:11.920Z,10.52
2022-10-30T10:54:46.704Z,10.45
2022-10-30T10:57:17.836Z,9.63
2022-10-30T10:59:47.759Z,8.10
2022-10-30T11:02:34.064Z,10.43
2022-10-30T11:05:19.319Z,9.43
2022-10-30T11:07:51.802Z,11.93
2022-10-30T11:10:21.738Z,16.60
2022-10-30T11:12:49.110Z,12.40
2022-10-30T11:15:19.402Z,8.07
2022-10-30T11:17:52.784Z,14.95
2022-10-30T11:20:21.834Z,6.15
2022-10-30T11:22:52.193Z,11.30
2022-10-30T11:25:19.409Z,6.72
2022-10-30T11:27:51.888Z,8.43
2022-10-30T11:30:21.020Z,11.60
2022-10-30T11:32:48.257Z,14.77
2022-10-30T11:35:17.651Z,9.80
2022-10-30T11:37:45.970Z,7.95
2022-10-30T11:40:13.209Z,10.13
2022-10-30T11:42:41.481Z,8.80
2022-10-30T11:45:35.007Z,8.85
2022-10-30T11:48:03.435Z,8.40
2022-10-30T11:50:32.498Z,9.75
2022-10-30T11:53:02.329Z,9.93
2022-10-30T11:55:32.266Z,11.90
2022-10-30T11:57:59.990Z,12.38
2022-10-30T12:00:28.920Z,9.73
2022-10-30T12:02:58.649Z,12.40
2022-10-30T12:05:26.002Z,13.98
2022-10-30T12:07:53.974Z,8.98
2022-10-30T12:10:28.746Z,6.03
2022-10-30T12:12:56.501Z,24.38
2022-10-30T12:15:26.723Z,10.77
2022-10-30T12:18:00.651Z,10.38
2022-10-30T12:20:28.435Z,7.18
2022-10-30T12:22:56.516Z,12.60
2022-10-30T12:25:33.070Z,10.07
2022-10-30T12:28:00.991Z,7.60
2022-10-30T12:30:30.333Z,9.32
2022-10-30T12:33:00.630Z,5.18
2022-10-30T12:35:34.165Z,7.20
2022-10-30T12:38:02.053Z,5.57
2022-10-30T12:40:36.104Z,9.98
2022-10-30T12:43:06.399Z,13.60
2022-10-30T12:45:36.631Z,8.55
2022-10-30T12:48:22.548Z,8.98
2022-10-30T12:51:05.788Z,13.60
2022-10-30T12:53:41.053Z,9.05
2022-10-30T12:56:14.039Z,8.68
2022-10-30T12:58:45.991Z,9.40
2022-10-30T13:01:31.806Z,8.93
2022-10-30T13:04:11.545Z,10.23
2022-10-30T13:06:58.582Z,10.35
2022-10-30T13:09:33.266Z,9.57
2022-10-30T13:12:11.814Z,9.45
2022-10-30T13:14:39.238Z,10.90
2022-10-30T13:17:10.706Z,11.55
2022-10-30T13:19:38.168Z,13.32
2022-10-30T13:22:34.623Z,10.35
2022-10-30T13:25:04.784Z,12.02
2022-10-30T13:27:41.403Z,9.35
2022-10-30T13:30:13.788Z,8.80
2022-10-30T13:33:00.171Z,8.23
2022-10-30T13:35:33.724Z,8.38
2022-10-30T13:38:01.622Z,10.05
2022-10-30T13:40:43.847Z,11.07
2022-10-30T13:43:16.883Z,12.95
2022-10-30T13:45:44.030Z,14.85
2022-10-30T13:48:11.143Z,8.73
2022-10-30T13:50:38.397Z,9.80
2022-10-30T13:53:06.804Z,10.10
2022-10-30T13:55:35.085Z,10.38
2022-10-30T13:58:05.276Z,7.90
2022-10-30T14:00:35.302Z,15.57
2022-10-30T14:03:03.109Z,11.10
2022-10-30T14:05:36.660Z,11.38
2022-10-30T14:08:06.353Z,13.48
2022-10-30T14:10:39.910Z,11.68
2022-10-30T14:13:28.988Z,9.85
2022-10-30T14:16:02.080Z,14.35
2022-10-30T14:18:45.410Z,13.93
2022-10-30T14:21:33.159Z,13.60
2022-10-30T14:24:04.991Z,14.60
2022-10-30T14:26:32.220Z,7.55
2022-10-30T14:28:59.380Z,12.43
2022-10-30T14:31:36.737Z,9.48
2022-10-30T14:34:04.234Z,10.43
2022-10-30T14:36:34.754Z,14.77
2022-10-30T14:39:21.883Z,14.38
2022-10-30T14:42:01.345Z,16.02
2022-10-30T14:44:28.496Z,13.07
2022-10-30T14:47:13.337Z,8.68
2022-10-30T14:49:59.274Z,14.65
2022-10-30T14:52:32.263Z,13.77
2022-10-30T14:55:18.325Z,14.77
2022-10-30T14:58:09.018Z,8.70
2022-10-30T15:00:36.384Z,11.27
2022-10-30T15:03:09.654Z,13.55
2022-10-30T15:05:52.323Z,14.88
2022-10-30T15:08:19.509Z,23.25
2022-10-30T15:11:05.484Z,13.02
2022-10-30T15:13:32.804Z,11.95
2022-10-30T15:16:04.087Z,12.23
2022-10-30T15:18:35.175Z,21.48
2022-10-30T15:21:09.198Z,17.52
2022-10-30T15:23:42.170Z,23.02
2022-10-30T15:26:17.664Z,20.58
2022-10-30T15:28:49.242Z,15.00
2022-10-30T15:31:24.270Z,16.70
2022-10-30T15:33:52.064Z,25.45
2022-10-30T15:36:24.443Z,17.00
2022-10-30T15:39:10.273Z,22.95
2022-10-30T15:41:56.975Z,14.32
2022-10-30T15:44:32.708Z,25.65
2022-10-30T15:47:01.365Z,20.35
2022-10-30T15:49:36.078Z,22.83
2022-10-30T15:52:05.079Z,16.80
2022-10-30T15:54:33.822Z,12.98
2022-10-30T15:59:53.874Z,10.75
2022-10-30T16:02:23.608Z,17.65
2022-10-30T16:04:51.015Z,13.90
2022-10-30T16:07:25.578Z,14.95
2022-10-30T16:10:04.848Z,15.02
2022-10-30T16:12:33.359Z,20.08
2022-10-30T16:15:09.571Z,18.23
2022-10-30T16:17:39.164Z,14.13
2022-10-30T16:20:06.699Z,15.88
2022-10-30T16:22:40.672Z,19.45
2022-10-30T16:25:08.421Z,18.83
2022-10-30T16:27:44.096Z,19.93
2022-10-30T16:30:14.205Z,19.65
2022-10-30T16:32:43.083Z,18.85
2022-10-30T16:35:11.786Z,14.30
2022-10-30T16:37:40.760Z,12.70
2022-10-30T16:40:14.481Z,16.40
2022-10-30T16:42:45.044Z,18.23
2022-10-30T16:45:11.810Z,29.25
2022-10-30T16:47:51.495Z,18.27
2022-10-30T16:50:20.515Z,22.25
2022-10-30T16:52:49.578Z,21.73
2022-10-30T16:55:20.503Z,21.73
2022-10-30T16:57:53.273Z,29.95
2022-10-30T17:00:26.030Z,22.08
2022-10-30T17:02:56.987Z,35.25
2022-10-30T17:05:30.692Z,21.10
2022-10-30T17:08:17.674Z,27.60
2022-10-30T17:10:56.044Z,33.00
2022-10-30T17:13:46.021Z,27.85
2022-10-30T17:16:26.662Z,26.77
2022-10-30T17:19:31.593Z,25.13
2022-10-30T17:22:02.111Z,15.27
2022-10-30T17:24:32.899Z,17.73
2022-10-30T17:27:03.000Z,21.30
2022-10-30T17:29:41.007Z,18.73
2022-10-30T17:32:42.743Z,21.25
2022-10-30T17:35:19.466Z,27.45
2022-10-30T17:37:46.238Z,19.15
2022-10-30T17:40:13.829Z,12.77
2022-10-30T17:42:41.354Z,15.35
2022-10-30T17:45:14.390Z,16.58
2022-10-30T17:47:41.214Z,22.92
2022-10-30T17:50:08.308Z,18.92
2022-10-30T17:52:35.137Z,13.30
2022-10-30T17:55:03.050Z,27.80
2022-10-30T17:57:29.853Z,24.48
2022-10-30T17:59:56.963Z,16.27
2022-10-30T18:02:24.074Z,36.50
2022-10-30T18:04:53.308Z,20.67
2022-10-30T18:07:40.545Z,20.40
2022-10-30T18:10:08.620Z,17.85
2022-10-30T18:12:35.849Z,18.90
2022-10-30T18:15:21.833Z,18.60
2022-10-30T18:17:48.663Z,15.88
2022-10-30T18:20:15.551Z,13.93
2022-10-30T18:22:42.419Z,19.10
2022-10-30T18:25:22.424Z,17.33
2022-10-30T18:27:49.431Z,19.45
2022-10-30T18:30:16.620Z,16.33
2022-10-30T18:32:43.940Z,20.45
2022-10-30T18:35:15.346Z,14.40
2022-10-30T18:37:42.455Z,18.00
2022-10-30T18:40:10.649Z,40.33
2022-10-30T18:42:38.008Z,16.50
2022-10-30T18:45:21.268Z,19.42
2022-10-30T18:47:49.141Z,24.10
2022-10-30T18:50:17.090Z,22.50
2022-10-30T18:52:44.052Z,32.13
2022-10-30T18:55:22.651Z,31.23
2022-10-30T18:57:50.856Z,24.95
2022-10-30T19:00:22.700Z,27.48
2022-10-30T19:02:49.855Z,27.75
2022-10-30T19:05:35.813Z,22.58
2022-10-30T19:08:05.811Z,29.35
2022-10-30T19:10:36.236Z,22.30
2022-10-30T19:13:17.770Z,20.88
2022-10-30T19:15:47.666Z,25.05
2022-10-30T19:18:15.531Z,23.23
2022-10-30T19:21:03.324Z,18.95
2022-10-30T19:23:30.003Z,28.85
2022-10-30T19:25:57.177Z,25.83
2022-10-30T19:28:24.074Z,27.45
2022-10-30T19:30:51.077Z,31.40
2022-10-30T19:33:19.817Z,28.23
2022-10-30T19:35:56.542Z,34.08
2022-10-30T19:38:23.571Z,22.08
2022-10-30T19:40:51.298Z,28.02
2022-10-30T19:43:18.089Z,29.80
2022-10-30T19:45:45.436Z,20.42
2022-10-30T19:48:34.400Z,21.30
2022-10-30T19:51:09.562Z,20.63
2022-10-30T19:53:36.335Z,20.02
2022-10-30T19:56:03.481Z,14.30
2022-10-30T19:58:30.315Z,20.50
2022-10-30T20:01:00.823Z,17.67
2022-10-30T20:03:28.744Z,20.13
2022-10-30T20:05:55.997Z,15.73
2022-10-30T20:08:24.985Z,22.20
2022-10-30T20:10:56.896Z,15.85
2022-10-30T20:13:25.373Z,15.57
2022-10-30T20:15:54.299Z,22.77
2022-10-30T20:18:31.973Z,19.75
2022-10-30T20:21:04.812Z,21.33
2022-10-30T20:23:31.799Z,20.60
2022-10-30T20:26:00.233Z,25.40
2022-10-30T20:28:30.402Z,20.73
2022-10-30T20:30:57.763Z,19.95
2022-10-30T20:33:28.433Z,18.70
2022-10-30T20:35:55.685Z,15.95
2022-10-30T20:38:26.440Z,19.63
2022-10-30T20:40:54.031Z,21.08
2022-10-30T20:43:22.617Z,19.67
2022-10-30T20:45:49.780Z,22.80
2022-10-30T20:48:17.121Z,21.60
2022-10-30T20:50:49.095Z,22.58
2022-10-30T20:53:17.809Z,17.40
2022-10-30T20:55:45.202Z,16.83
2022-10-30T20:58:12.614Z,21.13
2022-10-30T21:00:40.728Z,24.67
2022-10-30T21:03:08.512Z,25.48
2022-10-30T21:05:45.046Z,15.65
2022-10-30T21:08:13.613Z,18.38
2022-10-30T21:10:40.977Z,20.45
2022-10-30T21:13:09.778Z,20.65
2022-10-30T21:15:41.327Z,18.65
2022-10-30T21:18:09.292Z,14.40
2022-10-30T21:20:37.454Z,27.65
2022-10-30T21:23:04.839Z,21.45
2022-10-30T21:25:32.368Z,17.25
2022-10-30T21:27:59.853Z,20.45
2022-10-30T21:30:27.987Z,18.50
2022-10-30T21:32:55.134Z,25.25
2022-10-30T21:35:22.345Z,20.33
2022-10-30T21:37:49.676Z,16.83
2022-10-30T21:40:17.017Z,25.95
2022-10-30T21:42:44.125Z,21.92
2022-10-30T21:45:11.399Z,17.13
2022-10-30T21:47:38.277Z,16.38
2022-10-30T21:50:07.872Z,15.88
2022-10-30T21:52:37.986Z,14.90
2022-10-30T21:55:05.282Z,15.15
2022-10-30T21:57:32.081Z,16.63
2022-10-30T22:00:01.804Z,18.15
2022-10-30T22:02:33.256Z,19.33
2022-10-30T22:05:00.008Z,22.30
2022-10-30T22:07:26.800Z,23.25
2022-10-30T22:09:54.643Z,15.98
2022-10-30T22:12:21.809Z,17.90
2022-10-30T22:14:48.600Z,16.35
2022-10-30T22:17:15.983Z,19.05
2022-10-30T22:19:43.132Z,15.10
2022-10-30T22:22:11.216Z,16.85
2022-10-30T22:24:38.451Z,13.07
2022-10-30T22:27:05.782Z,15.90
2022-10-30T22:29:33.442Z,14.13
2022-10-30T22:32:00.713Z,16.23
2022-10-30T22:34:27.890Z,17.58
2022-10-30T22:36:55.029Z,14.60
2022-10-30T22:39:22.817Z,17.05
2022-10-30T22:41:50.215Z,18.33
2022-10-30T22:44:18.621Z,18.40
2022-10-30T22:46:46.017Z,14.55
2022-10-30T22:49:13.225Z,18.40
2022-10-30T22:51:40.810Z,14.02
2022-10-30T22:54:10.953Z,15.02
2022-10-30T22:56:38.362Z,20.58
2022-10-30T22:59:07.149Z,21.83
2022-10-30T23:01:35.840Z,19.98
2022-10-30T23:04:03.603Z,19.35
2022-10-30T23:06:31.404Z,15.73
2022-10-30T23:08:59.719Z,17.85
2022-10-30T23:11:27.578Z,22.15
2022-10-30T23:13:54.945Z,17.90
2022-10-30T23:16:23.215Z,16.55
2022-10-30T23:18:51.084Z,19.25
2022-10-30T23:21:22.409Z,16.17
2022-10-30T23:23:50.264Z,18.13
2022-10-30T23:26:20.406Z,14.13
2022-10-30T23:28:47.883Z,18.02
2022-10-30T23:31:25.639Z,14.05
2022-10-30T23:33:53.630Z,16.40
2022-10-30T23:36:20.869Z,24.42
2022-10-30T23:38:53.228Z,13.68
2022-10-30T23:41:21.256Z,16.35
2022-10-30T23:43:48.467Z,17.27
2022-10-30T23:46:15.615Z,16.42
2022-10-30T23:48:43.055Z,17.38
2022-10-30T23:51:10.408Z,17.52
2022-10-30T23:53:37.641Z,17.77
2022-10-30T23:56:05.345Z,21.98
2022-10-30T23:58:32.667Z,17.77
